sensor_id;sensor_type;location;lat;lon;timestamp;pressure;altitude;pressure_sealevel;temperature;humidity
52957;BME280;38819;42.692;23.342;2022-08-03T00:00:43;95305.50;;;21.55;57.77
52957;BME280;38819;42.692;23.342;2022-08-03T00:03:08;95303.13;;;21.54;57.84
52957;BME280;38819;42.692;23.342;2022-08-03T00:05:35;95300.00;;;21.55;57.98
52957;BME280;38819;42.692;23.342;2022-08-03T00:08:01;95300.38;;;21.54;57.82
52957;BME280;38819;42.692;23.342;2022-08-03T00:10:26;95305.41;;;21.52;58.19
52957;BME280;38819;42.692;23.342;2022-08-03T00:12:52;95297.97;;;21.52;58.21
52957;BME280;38819;42.692;23.342;2022-08-03T00:15:18;95295.53;;;21.47;58.73
52957;BME280;38819;42.692;23.342;2022-08-03T00:17:44;95294.25;;;21.44;58.62
52957;BME280;38819;42.692;23.342;2022-08-03T00:20:10;95300.47;;;21.41;58.61
52957;BME280;38819;42.692;23.342;2022-08-03T00:22:36;95295.25;;;21.36;58.58
52957;BME280;38819;42.692;23.342;2022-08-03T00:25:01;95294.59;;;21.43;57.15
52957;BME280;38819;42.692;23.342;2022-08-03T00:27:26;95298.28;;;21.47;57.84
52957;BME280;38819;42.692;23.342;2022-08-03T00:29:52;95300.31;;;21.50;58.09
52957;BME280;38819;42.692;23.342;2022-08-03T00:32:17;95297.00;;;21.44;57.88
52957;BME280;38819;42.692;23.342;2022-08-03T00:34:43;95294.19;;;21.41;57.51
52957;BME280;38819;42.692;23.342;2022-08-03T00:37:08;95291.72;;;21.36;58.54
52957;BME280;38819;42.692;23.342;2022-08-03T00:39:34;95296.50;;;21.39;57.77
52957;BME280;38819;42.692;23.342;2022-08-03T00:42:06;95291.72;;;21.36;57.99
52957;BME280;38819;42.692;23.342;2022-08-03T00:44:42;95292.72;;;21.27;57.99
52957;BME280;38819;42.692;23.342;2022-08-03T00:47:08;95300.97;;;21.27;57.89
52957;BME280;38819;42.692;23.342;2022-08-03T00:49:38;95293.72;;;21.19;58.51
52957;BME280;38819;42.692;23.342;2022-08-03T00:52:04;95301.88;;;21.16;58.91
52957;BME280;38819;42.692;23.342;2022-08-03T00:54:31;95303.56;;;21.20;58.41
52957;BME280;38819;42.692;23.342;2022-08-03T00:56:57;95294.06;;;21.18;57.57
52957;BME280;38819;42.692;23.342;2022-08-03T00:59:22;95293.38;;;21.21;58.19
52957;BME280;38819;42.692;23.342;2022-08-03T01:01:48;95300.09;;;21.23;57.75
52957;BME280;38819;42.692;23.342;2022-08-03T01:04:14;95297.53;;;21.15;56.89
52957;BME280;38819;42.692;23.342;2022-08-03T01:09:43;95287.38;;;21.15;56.70
52957;BME280;38819;42.692;23.342;2022-08-03T01:12:31;95287.00;;;21.17;56.67
52957;BME280;38819;42.692;23.342;2022-08-03T01:17:38;95291.97;;;21.11;57.11
52957;BME280;38819;42.692;23.342;2022-08-03T01:20:06;95287.19;;;21.08;57.31
52957;BME280;38819;42.692;23.342;2022-08-03T01:30:52;95286.22;;;20.65;58.66
52957;BME280;38819;42.692;23.342;2022-08-03T01:33:30;95276.63;;;20.59;58.40
52957;BME280;38819;42.692;23.342;2022-08-03T01:36:04;95289.56;;;20.58;58.78
52957;BME280;38819;42.692;23.342;2022-08-03T01:38:35;95290.28;;;20.55;58.95
52957;BME280;38819;42.692;23.342;2022-08-03T01:41:09;95291.50;;;20.58;58.52
52957;BME280;38819;42.692;23.342;2022-08-03T01:43:37;95290.34;;;20.59;58.32
52957;BME280;38819;42.692;23.342;2022-08-03T01:46:05;95293.00;;;20.55;58.62
52957;BME280;38819;42.692;23.342;2022-08-03T01:48:32;95292.75;;;20.60;58.77
52957;BME280;38819;42.692;23.342;2022-08-03T01:50:59;95292.16;;;20.67;58.66
52957;BME280;38819;42.692;23.342;2022-08-03T01:53:25;95298.78;;;20.66;58.67
52957;BME280;38819;42.692;23.342;2022-08-03T01:55:53;95290.00;;;20.60;58.39
52957;BME280;38819;42.692;23.342;2022-08-03T01:58:21;95294.00;;;20.63;58.58
52957;BME280;38819;42.692;23.342;2022-08-03T02:00:49;95294.94;;;20.54;58.33
52957;BME280;38819;42.692;23.342;2022-08-03T02:03:15;95290.06;;;20.48;58.96
52957;BME280;38819;42.692;23.342;2022-08-03T02:05:44;95289.38;;;20.51;59.55
52957;BME280;38819;42.692;23.342;2022-08-03T02:08:12;95291.69;;;20.49;59.50
52957;BME280;38819;42.692;23.342;2022-08-03T02:10:40;95296.38;;;20.48;59.74
52957;BME280;38819;42.692;23.342;2022-08-03T02:13:07;95291.25;;;20.47;59.63
52957;BME280;38819;42.692;23.342;2022-08-03T02:15:35;95293.91;;;20.43;60.06
52957;BME280;38819;42.692;23.342;2022-08-03T02:18:02;95286.81;;;20.42;59.95
52957;BME280;38819;42.692;23.342;2022-08-03T02:20:30;95287.25;;;20.44;60.08
52957;BME280;38819;42.692;23.342;2022-08-03T02:22:57;95282.75;;;20.52;60.08
52957;BME280;38819;42.692;23.342;2022-08-03T02:25:23;95287.69;;;20.62;60.05
52957;BME280;38819;42.692;23.342;2022-08-03T02:27:55;95287.25;;;20.60;59.85
52957;BME280;38819;42.692;23.342;2022-08-03T02:30:28;95286.00;;;20.58;59.93
52957;BME280;38819;42.692;23.342;2022-08-03T02:32:56;95289.19;;;20.60;59.95
52957;BME280;38819;42.692;23.342;2022-08-03T02:35:25;95286.34;;;20.56;60.13
52957;BME280;38819;42.692;23.342;2022-08-03T02:37:55;95289.03;;;20.52;60.26
52957;BME280;38819;42.692;23.342;2022-08-03T02:40:23;95285.31;;;20.45;60.63
52957;BME280;38819;42.692;23.342;2022-08-03T02:42:54;95294.59;;;20.40;60.61
52957;BME280;38819;42.692;23.342;2022-08-03T02:45:23;95290.69;;;20.41;60.79
52957;BME280;38819;42.692;23.342;2022-08-03T02:47:49;95286.44;;;20.28;61.47
52957;BME280;38819;42.692;23.342;2022-08-03T02:50:17;95287.59;;;20.27;61.64
52957;BME280;38819;42.692;23.342;2022-08-03T02:52:45;95288.66;;;20.22;61.73
52957;BME280;38819;42.692;23.342;2022-08-03T02:55:11;95290.53;;;20.18;61.64
52957;BME280;38819;42.692;23.342;2022-08-03T02:57:39;95288.03;;;20.13;61.87
52957;BME280;38819;42.692;23.342;2022-08-03T03:00:06;95295.63;;;20.04;62.32
52957;BME280;38819;42.692;23.342;2022-08-03T03:02:33;95298.81;;;20.06;62.03
52957;BME280;38819;42.692;23.342;2022-08-03T03:05:00;95303.84;;;20.04;61.73
52957;BME280;38819;42.692;23.342;2022-08-03T03:07:26;95307.38;;;20.04;61.86
52957;BME280;38819;42.692;23.342;2022-08-03T03:09:52;95310.38;;;19.99;61.48
52957;BME280;38819;42.692;23.342;2022-08-03T03:12:18;95312.16;;;20.07;61.60
52957;BME280;38819;42.692;23.342;2022-08-03T03:14:45;95312.16;;;19.91;61.54
52957;BME280;38819;42.692;23.342;2022-08-03T03:17:11;95319.03;;;19.85;61.91
52957;BME280;38819;42.692;23.342;2022-08-03T03:19:38;95319.13;;;19.89;61.23
52957;BME280;38819;42.692;23.342;2022-08-03T03:22:06;95319.38;;;19.84;61.43
52957;BME280;38819;42.692;23.342;2022-08-03T03:24:34;95332.38;;;19.74;62.09
52957;BME280;38819;42.692;23.342;2022-08-03T03:27:00;95322.38;;;19.66;62.14
52957;BME280;38819;42.692;23.342;2022-08-03T03:29:26;95323.97;;;19.67;62.15
52957;BME280;38819;42.692;23.342;2022-08-03T03:31:52;95331.31;;;19.63;62.47
52957;BME280;38819;42.692;23.342;2022-08-03T03:34:18;95328.91;;;19.61;62.19
52957;BME280;38819;42.692;23.342;2022-08-03T03:36:43;95332.28;;;19.71;61.86
52957;BME280;38819;42.692;23.342;2022-08-03T03:39:09;95324.84;;;19.84;61.70
52957;BME280;38819;42.692;23.342;2022-08-03T03:41:35;95331.56;;;19.86;61.84
52957;BME280;38819;42.692;23.342;2022-08-03T03:44:00;95335.91;;;19.87;61.57
52957;BME280;38819;42.692;23.342;2022-08-03T03:46:26;95335.06;;;19.99;60.97
52957;BME280;38819;42.692;23.342;2022-08-03T03:48:52;95333.69;;;19.93;61.10
52957;BME280;38819;42.692;23.342;2022-08-03T03:51:17;95341.31;;;19.99;60.95
52957;BME280;38819;42.692;23.342;2022-08-03T03:53:57;95341.19;;;20.08;61.21
52957;BME280;38819;42.692;23.342;2022-08-03T03:56:23;95344.03;;;20.12;60.92
52957;BME280;38819;42.692;23.342;2022-08-03T03:58:49;95344.75;;;20.25;60.94
52957;BME280;38819;42.692;23.342;2022-08-03T04:01:15;95346.91;;;20.31;60.83
52957;BME280;38819;42.692;23.342;2022-08-03T04:03:41;95342.56;;;20.30;60.86
52957;BME280;38819;42.692;23.342;2022-08-03T04:06:06;95343.53;;;20.38;60.49
52957;BME280;38819;42.692;23.342;2022-08-03T04:08:50;95339.38;;;20.44;60.12
52957;BME280;38819;42.692;23.342;2022-08-03T04:11:40;95332.50;;;20.66;60.07
52957;BME280;38819;42.692;23.342;2022-08-03T04:14:23;95331.00;;;20.69;59.76
52957;BME280;38819;42.692;23.342;2022-08-03T04:16:54;95336.41;;;20.65;59.71
52957;BME280;38819;42.692;23.342;2022-08-03T04:19:29;95327.97;;;20.58;59.86
52957;BME280;38819;42.692;23.342;2022-08-03T04:21:59;95326.38;;;20.57;60.23
52957;BME280;38819;42.692;23.342;2022-08-03T04:24:40;95336.06;;;20.67;59.90
52957;BME280;38819;42.692;23.342;2022-08-03T04:27:08;95336.66;;;20.76;59.79
52957;BME280;38819;42.692;23.342;2022-08-03T04:29:39;95338.44;;;20.84;59.05
52957;BME280;38819;42.692;23.342;2022-08-03T04:32:06;95335.59;;;20.81;59.28
52957;BME280;38819;42.692;23.342;2022-08-03T04:34:33;95338.78;;;20.83;59.35
52957;BME280;38819;42.692;23.342;2022-08-03T04:37:00;95346.03;;;20.91;59.32
52957;BME280;38819;42.692;23.342;2022-08-03T04:39:30;95345.50;;;20.85;59.16
52957;BME280;38819;42.692;23.342;2022-08-03T04:41:59;95343.94;;;20.68;59.53
52957;BME280;38819;42.692;23.342;2022-08-03T04:44:26;95357.31;;;20.70;59.69
52957;BME280;38819;42.692;23.342;2022-08-03T04:46:53;95355.63;;;20.65;60.05
52957;BME280;38819;42.692;23.342;2022-08-03T04:49:19;95351.63;;;20.63;59.63
52957;BME280;38819;42.692;23.342;2022-08-03T04:51:47;95361.00;;;20.78;59.46
52957;BME280;38819;42.692;23.342;2022-08-03T04:54:13;95354.38;;;20.79;58.92
52957;BME280;38819;42.692;23.342;2022-08-03T04:56:40;95358.97;;;20.75;59.04
52957;BME280;38819;42.692;23.342;2022-08-03T04:59:06;95363.47;;;20.83;59.29
52957;BME280;38819;42.692;23.342;2022-08-03T05:01:31;95360.13;;;20.73;59.66
52957;BME280;38819;42.692;23.342;2022-08-03T05:03:57;95368.09;;;20.79;59.86
52957;BME280;38819;42.692;23.342;2022-08-03T05:06:22;95366.75;;;20.72;59.79
52957;BME280;38819;42.692;23.342;2022-08-03T05:08:49;95374.56;;;20.70;59.72
52957;BME280;38819;42.692;23.342;2022-08-03T05:11:15;95374.22;;;20.72;59.54
52957;BME280;38819;42.692;23.342;2022-08-03T05:13:40;95375.91;;;20.77;59.57
52957;BME280;38819;42.692;23.342;2022-08-03T05:16:06;95387.19;;;20.59;60.28
52957;BME280;38819;42.692;23.342;2022-08-03T05:18:31;95386.47;;;20.62;60.18
52957;BME280;38819;42.692;23.342;2022-08-03T05:20:57;95382.19;;;20.77;59.52
52957;BME280;38819;42.692;23.342;2022-08-03T05:23:23;95376.78;;;20.81;59.47
52957;BME280;38819;42.692;23.342;2022-08-03T05:25:48;95381.56;;;20.84;59.45
52957;BME280;38819;42.692;23.342;2022-08-03T05:28:14;95386.94;;;20.96;59.00
52957;BME280;38819;42.692;23.342;2022-08-03T05:30:39;95377.28;;;21.02;58.62
52957;BME280;38819;42.692;23.342;2022-08-03T05:33:05;95377.53;;;21.13;57.90
52957;BME280;38819;42.692;23.342;2022-08-03T05:35:31;95393.31;;;21.16;57.98
52957;BME280;38819;42.692;23.342;2022-08-03T05:37:57;95386.91;;;21.28;57.57
52957;BME280;38819;42.692;23.342;2022-08-03T05:40:22;95399.31;;;21.38;57.22
52957;BME280;38819;42.692;23.342;2022-08-03T05:42:48;95394.16;;;21.52;56.98
52957;BME280;38819;42.692;23.342;2022-08-03T05:45:14;95388.47;;;21.61;56.84
52957;BME280;38819;42.692;23.342;2022-08-03T05:47:40;95394.56;;;21.70;56.51
52957;BME280;38819;42.692;23.342;2022-08-03T05:50:06;95399.84;;;21.79;56.29
52957;BME280;38819;42.692;23.342;2022-08-03T05:52:32;95392.16;;;21.88;55.93
52957;BME280;38819;42.692;23.342;2022-08-03T05:54:57;95394.06;;;22.04;55.56
52957;BME280;38819;42.692;23.342;2022-08-03T05:57:23;95390.44;;;22.19;55.26
52957;BME280;38819;42.692;23.342;2022-08-03T05:59:49;95392.97;;;22.28;54.79
52957;BME280;38819;42.692;23.342;2022-08-03T06:02:14;95402.25;;;22.39;54.64
52957;BME280;38819;42.692;23.342;2022-08-03T06:04:40;95396.81;;;22.43;54.42
52957;BME280;38819;42.692;23.342;2022-08-03T06:07:05;95401.66;;;22.49;53.96
52957;BME280;38819;42.692;23.342;2022-08-03T06:09:30;95404.03;;;22.51;53.62
52957;BME280;38819;42.692;23.342;2022-08-03T06:11:56;95401.78;;;22.56;54.13
52957;BME280;38819;42.692;23.342;2022-08-03T06:14:21;95403.88;;;22.63;54.07
52957;BME280;38819;42.692;23.342;2022-08-03T06:16:46;95402.03;;;22.71;53.94
52957;BME280;38819;42.692;23.342;2022-08-03T06:19:12;95398.09;;;22.72;53.28
52957;BME280;38819;42.692;23.342;2022-08-03T06:21:37;95399.84;;;22.57;54.03
52957;BME280;38819;42.692;23.342;2022-08-03T06:24:03;95405.03;;;22.62;53.30
52957;BME280;38819;42.692;23.342;2022-08-03T06:26:28;95408.69;;;22.70;53.23
52957;BME280;38819;42.692;23.342;2022-08-03T06:28:54;95394.25;;;22.76;53.16
52957;BME280;38819;42.692;23.342;2022-08-03T06:31:24;95403.81;;;22.83;53.11
52957;BME280;38819;42.692;23.342;2022-08-03T06:33:51;95398.13;;;22.95;52.90
52957;BME280;38819;42.692;23.342;2022-08-03T06:36:16;95399.81;;;23.03;52.92
52957;BME280;38819;42.692;23.342;2022-08-03T06:38:41;95394.47;;;23.10;52.38
52957;BME280;38819;42.692;23.342;2022-08-03T06:41:07;95395.31;;;23.15;52.27
52957;BME280;38819;42.692;23.342;2022-08-03T06:43:32;95394.31;;;23.26;51.79
52957;BME280;38819;42.692;23.342;2022-08-03T06:46:02;95395.19;;;23.30;51.79
52957;BME280;38819;42.692;23.342;2022-08-03T06:48:27;95391.75;;;23.37;51.63
52957;BME280;38819;42.692;23.342;2022-08-03T06:50:52;95386.75;;;23.46;51.22
52957;BME280;38819;42.692;23.342;2022-08-03T06:53:18;95394.00;;;23.58;50.84
52957;BME280;38819;42.692;23.342;2022-08-03T06:55:43;95392.53;;;23.64;50.72
52957;BME280;38819;42.692;23.342;2022-08-03T06:58:09;95392.56;;;23.41;51.24
52957;BME280;38819;42.692;23.342;2022-08-03T07:00:34;95393.53;;;23.26;52.04
52957;BME280;38819;42.692;23.342;2022-08-03T07:03:00;95388.53;;;23.35;51.66
52957;BME280;38819;42.692;23.342;2022-08-03T07:05:25;95390.19;;;23.40;52.09
52957;BME280;38819;42.692;23.342;2022-08-03T07:07:54;95388.22;;;23.40;52.46
52957;BME280;38819;42.692;23.342;2022-08-03T07:10:20;95391.88;;;23.48;52.08
52957;BME280;38819;42.692;23.342;2022-08-03T07:12:46;95391.28;;;23.35;51.92
52957;BME280;38819;42.692;23.342;2022-08-03T07:15:11;95389.09;;;23.44;51.77
52957;BME280;38819;42.692;23.342;2022-08-03T07:17:37;95392.69;;;23.48;52.02
52957;BME280;38819;42.692;23.342;2022-08-03T07:20:06;95392.22;;;23.43;52.38
52957;BME280;38819;42.692;23.342;2022-08-03T07:22:33;95392.81;;;23.56;51.90
52957;BME280;38819;42.692;23.342;2022-08-03T07:24:58;95392.72;;;23.52;51.89
52957;BME280;38819;42.692;23.342;2022-08-03T07:27:24;95393.41;;;23.45;51.47
52957;BME280;38819;42.692;23.342;2022-08-03T07:29:54;95397.94;;;23.57;51.28
52957;BME280;38819;42.692;23.342;2022-08-03T07:32:20;95397.88;;;23.54;51.61
52957;BME280;38819;42.692;23.342;2022-08-03T07:34:45;95397.53;;;23.59;52.26
52957;BME280;38819;42.692;23.342;2022-08-03T07:37:10;95394.78;;;23.59;51.35
52957;BME280;38819;42.692;23.342;2022-08-03T07:39:36;95394.16;;;23.69;50.85
52957;BME280;38819;42.692;23.342;2022-08-03T07:42:01;95391.34;;;23.65;51.32
52957;BME280;38819;42.692;23.342;2022-08-03T07:44:27;95399.31;;;23.71;49.77
52957;BME280;38819;42.692;23.342;2022-08-03T07:46:52;95399.03;;;23.79;49.78
52957;BME280;38819;42.692;23.342;2022-08-03T07:49:18;95401.97;;;23.94;49.68
52957;BME280;38819;42.692;23.342;2022-08-03T07:51:43;95402.06;;;23.97;49.73
52957;BME280;38819;42.692;23.342;2022-08-03T07:54:09;95400.78;;;23.91;50.04
52957;BME280;38819;42.692;23.342;2022-08-03T07:56:35;95391.81;;;23.98;49.41
52957;BME280;38819;42.692;23.342;2022-08-03T07:59:00;95394.97;;;24.00;49.06
52957;BME280;38819;42.692;23.342;2022-08-03T08:01:27;95390.75;;;24.10;48.55
52957;BME280;38819;42.692;23.342;2022-08-03T08:03:53;95399.81;;;24.10;47.79
52957;BME280;38819;42.692;23.342;2022-08-03T08:06:18;95399.16;;;24.20;47.03
52957;BME280;38819;42.692;23.342;2022-08-03T08:08:43;95398.19;;;24.36;47.33
52957;BME280;38819;42.692;23.342;2022-08-03T08:11:09;95404.53;;;24.44;47.67
52957;BME280;38819;42.692;23.342;2022-08-03T08:13:34;95410.88;;;24.44;46.18
52957;BME280;38819;42.692;23.342;2022-08-03T08:16:02;95405.78;;;24.46;45.06
52957;BME280;38819;42.692;23.342;2022-08-03T08:18:27;95400.66;;;24.48;45.54
52957;BME280;38819;42.692;23.342;2022-08-03T08:20:56;95400.75;;;24.55;45.45
52957;BME280;38819;42.692;23.342;2022-08-03T08:23:21;95398.94;;;24.70;45.64
52957;BME280;38819;42.692;23.342;2022-08-03T08:25:49;95394.59;;;24.69;45.61
52957;BME280;38819;42.692;23.342;2022-08-03T08:28:21;95403.34;;;24.75;45.43
52957;BME280;38819;42.692;23.342;2022-08-03T08:30:47;95400.59;;;24.78;45.67
52957;BME280;38819;42.692;23.342;2022-08-03T08:33:13;95403.72;;;24.73;46.00
52957;BME280;38819;42.692;23.342;2022-08-03T08:35:39;95395.84;;;24.79;45.92
52957;BME280;38819;42.692;23.342;2022-08-03T08:38:04;95393.22;;;24.90;45.20
52957;BME280;38819;42.692;23.342;2022-08-03T08:40:30;95405.13;;;24.98;46.70
52957;BME280;38819;42.692;23.342;2022-08-03T08:42:55;95401.56;;;25.01;44.89
52957;BME280;38819;42.692;23.342;2022-08-03T08:45:21;95392.50;;;25.00;44.30
52957;BME280;38819;42.692;23.342;2022-08-03T08:47:48;95399.28;;;25.06;44.52
52957;BME280;38819;42.692;23.342;2022-08-03T08:50:18;95384.38;;;25.22;44.22
52957;BME280;38819;42.692;23.342;2022-08-03T08:52:45;95381.72;;;25.32;44.36
52957;BME280;38819;42.692;23.342;2022-08-03T08:55:13;95382.94;;;25.35;43.54
52957;BME280;38819;42.692;23.342;2022-08-03T08:57:50;95378.66;;;25.45;43.22
52957;BME280;38819;42.692;23.342;2022-08-03T09:00:17;95373.56;;;25.54;41.68
52957;BME280;38819;42.692;23.342;2022-08-03T09:02:44;95377.97;;;25.66;41.99
52957;BME280;38819;42.692;23.342;2022-08-03T09:05:14;95378.03;;;25.69;42.57
52957;BME280;38819;42.692;23.342;2022-08-03T09:07:40;95365.81;;;25.78;41.50
52957;BME280;38819;42.692;23.342;2022-08-03T09:10:07;95371.41;;;25.92;41.31
52957;BME280;38819;42.692;23.342;2022-08-03T09:12:47;95369.50;;;26.00;41.81
52957;BME280;38819;42.692;23.342;2022-08-03T09:15:29;95375.81;;;26.00;41.71
52957;BME280;38819;42.692;23.342;2022-08-03T09:17:59;95367.53;;;26.07;42.18
52957;BME280;38819;42.692;23.342;2022-08-03T09:20:27;95372.69;;;26.09;41.38
52957;BME280;38819;42.692;23.342;2022-08-03T09:23:07;95372.31;;;26.11;40.97
52957;BME280;38819;42.692;23.342;2022-08-03T09:25:39;95369.59;;;26.18;41.70
52957;BME280;38819;42.692;23.342;2022-08-03T09:28:11;95369.59;;;26.25;40.71
52957;BME280;38819;42.692;23.342;2022-08-03T09:30:38;95368.81;;;26.32;40.75
52957;BME280;38819;42.692;23.342;2022-08-03T09:33:06;95373.59;;;26.42;40.08
52957;BME280;38819;42.692;23.342;2022-08-03T09:35:32;95365.69;;;26.44;39.36
52957;BME280;38819;42.692;23.342;2022-08-03T09:40:48;95366.13;;;26.60;39.56
52957;BME280;38819;42.692;23.342;2022-08-03T09:43:15;95360.19;;;26.62;39.66
52957;BME280;38819;42.692;23.342;2022-08-03T09:45:41;95369.72;;;26.68;39.16
52957;BME280;38819;42.692;23.342;2022-08-03T09:48:29;95367.34;;;26.77;39.68
52957;BME280;38819;42.692;23.342;2022-08-03T09:50:58;95372.09;;;26.77;39.10
52957;BME280;38819;42.692;23.342;2022-08-03T09:53:24;95367.75;;;26.76;39.35
52957;BME280;38819;42.692;23.342;2022-08-03T09:55:56;95358.66;;;26.83;38.88
52957;BME280;38819;42.692;23.342;2022-08-03T09:58:27;95362.19;;;26.79;39.09
52957;BME280;38819;42.692;23.342;2022-08-03T10:03:19;95361.03;;;26.88;39.13
52957;BME280;38819;42.692;23.342;2022-08-03T10:05:45;95355.09;;;26.93;39.10
52957;BME280;38819;42.692;23.342;2022-08-03T10:08:14;95353.09;;;26.86;39.32
52957;BME280;38819;42.692;23.342;2022-08-03T10:10:42;95348.75;;;26.92;39.43
52957;BME280;38819;42.692;23.342;2022-08-03T10:13:10;95351.13;;;26.97;39.29
52957;BME280;38819;42.692;23.342;2022-08-03T10:15:38;95351.91;;;26.94;39.18
52957;BME280;38819;42.692;23.342;2022-08-03T10:18:04;95349.94;;;26.91;39.04
52957;BME280;38819;42.692;23.342;2022-08-03T10:20:30;95351.53;;;26.89;38.95
52957;BME280;38819;42.692;23.342;2022-08-03T10:22:56;95344.41;;;27.06;38.80
52957;BME280;38819;42.692;23.342;2022-08-03T10:25:23;95344.00;;;27.11;38.43
52957;BME280;38819;42.692;23.342;2022-08-03T10:27:50;95348.75;;;27.14;39.49
52957;BME280;38819;42.692;23.342;2022-08-03T10:30:17;95337.28;;;27.15;38.09
52957;BME280;38819;42.692;23.342;2022-08-03T10:32:47;95346.38;;;27.12;38.45
52957;BME280;38819;42.692;23.342;2022-08-03T10:35:19;95340.03;;;27.15;39.03
52957;BME280;38819;42.692;23.342;2022-08-03T10:38:00;95337.28;;;27.15;38.77
52957;BME280;38819;42.692;23.342;2022-08-03T10:40:29;95343.63;;;27.02;38.61
52957;BME280;38819;42.692;23.342;2022-08-03T10:43:08;95336.50;;;27.01;38.69
52957;BME280;38819;42.692;23.342;2022-08-03T10:45:40;95338.47;;;27.04;38.81
52957;BME280;38819;42.692;23.342;2022-08-03T10:48:07;95334.13;;;27.10;39.94
52957;BME280;38819;42.692;23.342;2022-08-03T10:50:33;95347.16;;;27.13;39.01
52957;BME280;38819;42.692;23.342;2022-08-03T10:53:04;95334.09;;;27.24;39.27
52957;BME280;38819;42.692;23.342;2022-08-03T10:55:36;95331.72;;;27.26;39.65
52957;BME280;38819;42.692;23.342;2022-08-03T11:01:12;95327.38;;;27.22;38.81
52957;BME280;38819;42.692;23.342;2022-08-03T11:06:23;95316.28;;;27.36;38.62
52957;BME280;38819;42.692;23.342;2022-08-03T11:11:33;95314.31;;;27.40;38.87
52957;BME280;38819;42.692;23.342;2022-08-03T11:14:17;95319.84;;;27.33;39.18
52957;BME280;38819;42.692;23.342;2022-08-03T11:19:21;95311.09;;;27.49;38.77
52957;BME280;38819;42.692;23.342;2022-08-03T11:27:34;95301.91;;;27.77;38.09
52957;BME280;38819;42.692;23.342;2022-08-03T11:43:01;95276.91;;;27.77;38.00
52957;BME280;38819;42.692;23.342;2022-08-03T11:45:27;95278.09;;;27.83;38.66
52957;BME280;38819;42.692;23.342;2022-08-03T11:47:53;95288.78;;;27.81;38.52
52957;BME280;38819;42.692;23.342;2022-08-03T11:50:20;95289.19;;;27.83;37.70
52957;BME280;38819;42.692;23.342;2022-08-03T11:52:47;95285.59;;;27.86;37.31
52957;BME280;38819;42.692;23.342;2022-08-03T11:55:14;95286.38;;;27.94;37.47
52957;BME280;38819;42.692;23.342;2022-08-03T11:57:40;95279.25;;;27.93;37.50
52957;BME280;38819;42.692;23.342;2022-08-03T12:00:32;95279.22;;;28.00;37.30
52957;BME280;38819;42.692;23.342;2022-08-03T12:03:03;95277.63;;;28.03;37.53
52957;BME280;38819;42.692;23.342;2022-08-03T12:05:52;95287.97;;;27.99;37.43
52957;BME280;38819;42.692;23.342;2022-08-03T12:10:54;95272.09;;;27.92;36.99
52957;BME280;38819;42.692;23.342;2022-08-03T12:13:20;95276.03;;;27.98;36.86
52957;BME280;38819;42.692;23.342;2022-08-03T12:15:53;95265.34;;;28.00;37.38
52957;BME280;38819;42.692;23.342;2022-08-03T12:18:20;95273.25;;;27.98;36.61
52957;BME280;38819;42.692;23.342;2022-08-03T12:20:47;95283.97;;;28.00;35.30
52957;BME280;38819;42.692;23.342;2022-08-03T12:23:12;95269.25;;;28.10;35.91
52957;BME280;38819;42.692;23.342;2022-08-03T12:25:39;95269.25;;;28.14;35.70
52957;BME280;38819;42.692;23.342;2022-08-03T12:28:14;95269.19;;;28.21;35.53
52957;BME280;38819;42.692;23.342;2022-08-03T12:30:48;95269.53;;;28.26;35.02
52957;BME280;38819;42.692;23.342;2022-08-03T12:35:39;95273.97;;;28.20;35.50
52957;BME280;38819;42.692;23.342;2022-08-03T12:38:05;95266.78;;;28.23;36.60
52957;BME280;38819;42.692;23.342;2022-08-03T12:40:31;95253.72;;;28.20;36.38
52957;BME280;38819;42.692;23.342;2022-08-03T12:42:56;95269.97;;;28.21;36.41
52957;BME280;38819;42.692;23.342;2022-08-03T12:45:26;95260.06;;;28.24;36.71
52957;BME280;38819;42.692;23.342;2022-08-03T12:47:57;95262.41;;;28.29;35.74
52957;BME280;38819;42.692;23.342;2022-08-03T12:52:56;95253.25;;;28.32;35.67
52957;BME280;38819;42.692;23.342;2022-08-03T12:55:22;95257.22;;;28.31;35.05
52957;BME280;38819;42.692;23.342;2022-08-03T12:57:48;95248.03;;;28.38;34.41
52957;BME280;38819;42.692;23.342;2022-08-03T13:00:16;95240.41;;;28.53;34.24
52957;BME280;38819;42.692;23.342;2022-08-03T13:02:42;95231.66;;;28.54;34.88
52957;BME280;38819;42.692;23.342;2022-08-03T13:05:12;95236.72;;;28.67;34.54
52957;BME280;38819;42.692;23.342;2022-08-03T13:07:44;95243.53;;;28.62;34.21
52957;BME280;38819;42.692;23.342;2022-08-03T13:10:11;95238.81;;;28.55;33.56
52957;BME280;38819;42.692;23.342;2022-08-03T13:12:49;95226.84;;;28.66;33.08
52957;BME280;38819;42.692;23.342;2022-08-03T13:15:14;95233.16;;;28.66;33.72
52957;BME280;38819;42.692;23.342;2022-08-03T13:17:41;95243.16;;;28.56;35.24
52957;BME280;38819;42.692;23.342;2022-08-03T13:20:06;95237.63;;;28.56;35.70
52957;BME280;38819;42.692;23.342;2022-08-03T13:22:32;95246.81;;;28.42;36.61
52957;BME280;38819;42.692;23.342;2022-08-03T13:24:58;95229.81;;;28.37;36.77
52957;BME280;38819;42.692;23.342;2022-08-03T13:27:25;95250.06;;;28.34;36.47
52957;BME280;38819;42.692;23.342;2022-08-03T13:29:50;95236.63;;;28.25;36.97
52957;BME280;38819;42.692;23.342;2022-08-03T13:32:17;95241.38;;;28.28;36.78
52957;BME280;38819;42.692;23.342;2022-08-03T13:34:43;95235.38;;;28.33;36.34
52957;BME280;38819;42.692;23.342;2022-08-03T13:37:08;95233.84;;;28.28;36.49
52957;BME280;38819;42.692;23.342;2022-08-03T13:39:36;95234.63;;;28.29;36.40
52957;BME280;38819;42.692;23.342;2022-08-03T13:42:02;95230.22;;;28.35;36.38
52957;BME280;38819;42.692;23.342;2022-08-03T13:44:27;95231.38;;;28.38;36.11
52957;BME280;38819;42.692;23.342;2022-08-03T13:46:53;95226.97;;;28.44;36.71
52957;BME280;38819;42.692;23.342;2022-08-03T13:49:18;95232.91;;;28.46;36.81